createdAt,value
2019-03-19T00:03:17.226Z,7.43
2019-03-19T00:08:11.177Z,7.63
2019-03-19T00:13:05.246Z,7.37
2019-03-19T00:17:59.201Z,7.10
2019-03-19T00:22:53.153Z,6.70
2019-03-19T00:27:47.118Z,6.40
2019-03-19T00:32:41.152Z,6.30
2019-03-19T00:37:35.121Z,5.70
2019-03-19T00:42:29.074Z,5.50
2019-03-19T00:47:23.120Z,5.50
2019-03-19T00:52:17.099Z,4.97
2019-03-19T00:57:11.078Z,4.87
2019-03-19T01:02:05.039Z,6.13
2019-03-19T01:06:59.001Z,5.40
2019-03-19T01:11:53.285Z,5.23
2019-03-19T01:16:47.304Z,5.93
2019-03-19T01:21:41.269Z,5.60
2019-03-19T01:26:35.402Z,5.40
2019-03-19T01:31:29.380Z,5.40
2019-03-19T01:36:23.351Z,5.17
2019-03-19T01:41:17.427Z,5.37
2019-03-19T01:46:11.525Z,5.60
2019-03-19T01:51:05.502Z,5.17
2019-03-19T01:56:05.225Z,5.40
2019-03-19T02:00:55.405Z,5.40
2019-03-19T02:05:49.381Z,5.43
2019-03-19T02:10:43.361Z,5.10
2019-03-19T02:15:37.437Z,5.40
2019-03-19T02:20:31.501Z,5.37
2019-03-19T02:25:25.563Z,5.60
2019-03-19T02:30:19.591Z,5.53
2019-03-19T02:35:13.611Z,5.27
2019-03-19T02:40:13.057Z,5.83
2019-03-19T02:45:14.050Z,5.87
2019-03-19T02:50:13.637Z,5.83
2019-03-19T02:55:08.638Z,5.80
2019-03-19T03:00:09.445Z,6.03
2019-03-19T03:05:07.025Z,6.27
2019-03-19T03:10:01.231Z,6.17
2019-03-19T03:14:55.197Z,6.10
2019-03-19T03:19:49.173Z,6.33
2019-03-19T03:24:43.155Z,6.13
2019-03-19T03:29:37.115Z,6.23
2019-03-19T03:34:31.112Z,6.63
2019-03-19T03:39:25.083Z,6.53
2019-03-19T03:44:19.202Z,6.47
2019-03-19T03:49:13.314Z,6.50
2019-03-19T03:54:07.392Z,7.00
2019-03-19T03:59:01.632Z,6.90
2019-03-19T04:03:55.724Z,8.00
2019-03-19T04:08:49.814Z,6.97
2019-03-19T04:13:43.761Z,7.63
2019-03-19T04:18:37.779Z,7.83
2019-03-19T04:23:31.750Z,8.13
2019-03-19T04:28:25.736Z,8.67
2019-03-19T04:33:19.717Z,8.33
2019-03-19T04:38:13.676Z,9.40
2019-03-19T04:43:07.689Z,9.17
2019-03-19T04:48:03.484Z,10.00
2019-03-19T04:52:57.494Z,8.07
2019-03-19T04:57:51.460Z,9.20
2019-03-19T05:02:45.624Z,8.30
2019-03-19T05:07:39.695Z,10.03
2019-03-19T05:12:33.677Z,9.20
2019-03-19T05:17:27.708Z,8.87
2019-03-19T05:22:21.692Z,9.80
2019-03-19T05:27:15.683Z,9.90
2019-03-19T05:32:09.796Z,9.97
2019-03-19T05:37:03.869Z,10.63
2019-03-19T05:41:57.826Z,10.40
2019-03-19T05:46:51.814Z,10.70
2019-03-19T05:51:45.795Z,10.67
2019-03-19T05:56:39.747Z,10.50
2019-03-19T06:01:33.704Z,11.50
2019-03-19T06:06:27.671Z,11.10
2019-03-19T06:11:21.641Z,11.40
2019-03-19T06:16:15.641Z,12.43
2019-03-19T06:21:09.629Z,11.80
2019-03-19T06:26:03.609Z,12.00
2019-03-19T06:30:57.604Z,11.93
2019-03-19T06:35:51.703Z,11.53
2019-03-19T06:40:45.671Z,12.47
2019-03-19T06:45:39.753Z,12.40
2019-03-19T06:50:44.406Z,12.93
2019-03-19T06:55:29.594Z,12.13
2019-03-19T07:00:23.668Z,12.13
2019-03-19T07:05:18.552Z,13.10
2019-03-19T07:10:15.063Z,12.17
2019-03-19T07:15:16.838Z,13.17
2019-03-19T07:20:16.295Z,12.43
2019-03-19T07:25:10.556Z,12.57
2019-03-19T07:30:21.494Z,11.63
2019-03-19T07:35:15.582Z,11.47
2019-03-19T07:40:13.554Z,11.60
2019-03-19T07:45:15.684Z,13.13
2019-03-19T07:50:12.144Z,12.47
2019-03-19T07:55:06.324Z,11.43
2019-03-19T08:00:00.365Z,11.37
2019-03-19T08:04:54.573Z,11.50
2019-03-19T08:09:48.560Z,11.53
2019-03-19T08:14:42.543Z,11.30
2019-03-19T08:19:36.613Z,11.47
2019-03-19T08:24:30.569Z,11.67
2019-03-19T08:29:24.543Z,11.97
2019-03-19T08:34:18.680Z,11.63
2019-03-19T08:39:12.649Z,11.67
2019-03-19T08:44:06.664Z,11.20
2019-03-19T08:49:00.628Z,11.30
2019-03-19T08:53:54.783Z,11.93
2019-03-19T08:58:48.752Z,10.07
2019-03-19T09:03:42.753Z,10.67
2019-03-19T09:08:36.739Z,9.47
2019-03-19T09:13:30.776Z,8.50
2019-03-19T09:18:24.757Z,9.00
2019-03-19T09:23:18.728Z,9.33
2019-03-19T09:28:12.794Z,8.13
2019-03-19T09:33:06.781Z,8.80
2019-03-19T09:38:00.778Z,6.57
2019-03-19T09:42:54.829Z,7.10
2019-03-19T09:47:48.796Z,6.67
2019-03-19T09:52:42.989Z,6.40
2019-03-19T09:57:37.138Z,5.97
2019-03-19T10:02:31.310Z,6.83
2019-03-19T10:07:25.311Z,6.73
2019-03-19T10:12:19.312Z,5.77
2019-03-19T10:17:13.286Z,6.20
2019-03-19T10:22:07.268Z,4.93
2019-03-19T10:27:01.238Z,5.10
2019-03-19T10:31:55.353Z,5.30
2019-03-19T10:36:49.360Z,5.20
2019-03-19T10:41:43.399Z,4.20
2019-03-19T10:46:37.489Z,4.57
2019-03-19T10:51:31.464Z,3.50
2019-03-19T10:56:25.480Z,3.25
2019-03-19T11:01:19.467Z,2.67
2019-03-19T11:06:13.480Z,2.52
2019-03-19T11:11:07.442Z,2.83
2019-03-19T11:16:01.459Z,2.40
2019-03-19T11:20:55.431Z,2.90
2019-03-19T11:25:54.571Z,3.08
2019-03-19T11:30:45.450Z,3.22
2019-03-19T11:35:39.543Z,2.98
2019-03-19T11:40:33.524Z,2.80
2019-03-19T11:45:27.715Z,2.98
2019-03-19T11:50:30.093Z,2.58
2019-03-19T11:55:24.228Z,2.40
2019-03-19T12:00:42.218Z,2.40
2019-03-19T12:05:36.180Z,2.60
2019-03-19T12:10:30.293Z,2.70
2019-03-19T12:15:24.397Z,2.50
2019-03-19T12:20:20.662Z,2.62
2019-03-19T12:25:14.240Z,2.40
2019-03-19T12:30:22.435Z,2.50
2019-03-19T12:35:18.409Z,2.62
2019-03-19T12:40:22.390Z,2.72
2019-03-19T12:45:20.485Z,2.20
2019-03-19T12:50:16.707Z,2.35
2019-03-19T12:55:10.870Z,2.30
2019-03-19T13:00:14.482Z,2.30
2019-03-19T13:05:08.668Z,2.50
2019-03-19T13:10:12.315Z,2.12
2019-03-19T13:15:09.026Z,2.33
2019-03-19T13:20:06.296Z,1.92
2019-03-19T13:25:00.372Z,2.52
2019-03-19T13:29:54.348Z,2.70
2019-03-19T13:34:48.356Z,2.20
2019-03-19T13:39:42.521Z,2.12
2019-03-19T13:44:36.604Z,2.10
2019-03-19T13:49:30.583Z,2.42
2019-03-19T13:54:24.571Z,1.82
2019-03-19T13:59:18.511Z,2.12
2019-03-19T14:04:12.599Z,1.98
2019-03-19T14:09:06.875Z,2.20
2019-03-19T14:14:00.853Z,2.60
2019-03-19T14:18:54.924Z,2.70
2019-03-19T14:23:48.954Z,2.50
2019-03-19T14:28:42.970Z,2.70
2019-03-19T14:33:37.239Z,2.50
2019-03-19T14:38:31.309Z,2.02
2019-03-19T14:43:25.431Z,2.50
2019-03-19T14:48:19.433Z,2.50
2019-03-19T14:53:13.537Z,2.95
2019-03-19T14:58:07.516Z,2.90
2019-03-19T15:03:01.553Z,3.12
2019-03-19T15:07:55.508Z,2.80
2019-03-19T15:12:49.636Z,2.40
2019-03-19T15:17:44.081Z,3.00
2019-03-19T15:22:38.379Z,2.90
2019-03-19T15:27:32.357Z,3.30
2019-03-19T15:32:26.485Z,3.25
2019-03-19T15:37:20.466Z,2.87
2019-03-19T15:42:14.468Z,3.00
2019-03-19T15:47:08.428Z,3.15
2019-03-19T15:52:02.416Z,3.27
2019-03-19T15:56:56.512Z,3.20
2019-03-19T16:01:50.569Z,3.12
2019-03-19T16:06:44.557Z,3.30
2019-03-19T16:11:38.658Z,3.70
2019-03-19T16:16:32.704Z,3.83
2019-03-19T16:21:26.773Z,3.98
2019-03-19T16:26:20.817Z,4.33
2019-03-19T16:31:14.957Z,4.10
2019-03-19T16:36:08.976Z,4.30
2019-03-19T16:41:03.024Z,4.00
2019-03-19T16:45:57.194Z,4.93
2019-03-19T16:50:51.153Z,4.70
2019-03-19T16:55:45.128Z,4.50
2019-03-19T17:00:39.185Z,4.90
2019-03-19T17:05:33.257Z,4.50
2019-03-19T17:10:28.837Z,4.63
2019-03-19T17:15:22.912Z,4.43
2019-03-19T17:20:17.698Z,5.20
2019-03-19T17:25:20.214Z,5.93
2019-03-19T17:30:20.035Z,5.90
2019-03-19T17:35:14.168Z,6.70
2019-03-19T17:40:12.451Z,6.27
2019-03-19T17:45:08.360Z,6.80
2019-03-19T17:50:08.188Z,6.53
2019-03-19T17:55:02.374Z,7.33
2019-03-19T17:59:56.485Z,7.10
2019-03-19T18:04:50.479Z,6.73
2019-03-19T18:09:44.581Z,6.67
2019-03-19T18:14:38.670Z,6.80
2019-03-19T18:19:32.663Z,7.23
2019-03-19T18:24:26.635Z,7.63
2019-03-19T18:29:20.662Z,7.40
2019-03-19T18:34:14.781Z,7.73
2019-03-19T18:39:08.776Z,8.00
2019-03-19T18:44:03.064Z,7.57
2019-03-19T18:48:57.073Z,10.83
2019-03-19T18:53:51.225Z,12.07
2019-03-19T18:58:45.250Z,11.63
2019-03-19T19:03:40.353Z,10.73
2019-03-19T19:08:34.521Z,10.53
2019-03-19T19:13:28.515Z,11.40
2019-03-19T19:18:22.527Z,9.33
2019-03-19T19:23:16.659Z,8.07
2019-03-19T19:28:10.602Z,7.73
2019-03-19T19:33:04.751Z,8.83
2019-03-19T19:37:58.893Z,8.67
2019-03-19T19:42:53.112Z,9.87
2019-03-19T19:47:47.181Z,10.33
2019-03-19T19:52:41.334Z,12.33
2019-03-19T19:57:36.444Z,13.13
2019-03-19T20:02:30.426Z,13.43
2019-03-19T20:07:24.645Z,13.80
2019-03-19T20:12:18.755Z,13.03
2019-03-19T20:17:12.788Z,13.00
2019-03-19T20:22:06.794Z,12.47
2019-03-19T20:27:01.198Z,12.20
2019-03-19T20:31:55.386Z,13.40
2019-03-19T20:36:49.376Z,13.30
2019-03-19T20:41:43.366Z,12.23
2019-03-19T20:46:37.477Z,12.53
2019-03-19T20:51:31.695Z,12.97
2019-03-19T20:56:25.715Z,12.67
2019-03-19T21:01:19.929Z,13.10
2019-03-19T21:06:13.934Z,13.40
2019-03-19T21:11:08.016Z,13.17
2019-03-19T21:16:02.113Z,12.07
2019-03-19T21:20:56.116Z,11.20
2019-03-19T21:25:50.092Z,11.17
2019-03-19T21:30:44.207Z,10.10
2019-03-19T21:35:38.234Z,10.60
2019-03-19T21:40:32.287Z,10.80
2019-03-19T21:45:26.412Z,10.97
2019-03-19T21:50:21.788Z,11.57
2019-03-19T21:55:15.895Z,11.03
2019-03-19T22:00:13.896Z,10.93
2019-03-19T22:05:08.092Z,11.10
2019-03-19T22:15:17.034Z,10.67
2019-03-19T22:20:11.774Z,9.80
2019-03-19T22:25:14.082Z,10.00
2019-03-19T22:30:13.881Z,9.37
2019-03-19T22:35:08.094Z,9.57
2019-03-19T22:40:08.276Z,9.50
2019-03-19T22:45:04.569Z,9.53
2019-03-19T22:49:58.565Z,9.77
2019-03-19T22:54:52.517Z,9.10
2019-03-19T22:59:46.525Z,9.23
2019-03-19T23:04:40.590Z,9.80
2019-03-19T23:09:34.556Z,10.33
2019-03-19T23:14:28.650Z,10.00
2019-03-19T23:19:22.827Z,12.23
2019-03-19T23:24:16.789Z,11.13
2019-03-19T23:29:10.780Z,12.03
2019-03-19T23:34:04.868Z,13.23
2019-03-19T23:38:58.852Z,13.27
2019-03-19T23:43:52.837Z,14.10
2019-03-19T23:48:47.002Z,13.00
2019-03-19T23:53:40.961Z,11.27
2019-03-19T23:58:34.939Z,11.17
